sensor_id;sensor_type;location;lat;lon;timestamp;P1;durP1;ratioP1;P2;durP2;ratioP2
6809;SDS011;3443;48.812;9.112;2024-01-15T00:01:13;19.63;;;12.77;;
6809;SDS011;3443;48.812;9.112;2024-01-15T00:03:39;18.23;;;12.63;;
6809;SDS011;3443;48.812;9.112;2024-01-15T00:06:05;18.53;;;13.13;;
6809;SDS011;3443;48.812;9.112;2024-01-15T00:08:30;20.63;;;13.83;;
6809;SDS011;3443;48.812;9.112;2024-01-15T00:10:56;21.63;;;13.60;;
6809;SDS011;3443;48.812;9.112;2024-01-15T00:13:21;20.80;;;14.37;;
6809;SDS011;3443;48.812;9.112;2024-01-15T00:15:47;19.93;;;13.60;;
6809;SDS011;3443;48.812;9.112;2024-01-15T00:18:13;17.43;;;13.33;;
6809;SDS011;3443;48.812;9.112;2024-01-15T00:20:38;17.53;;;12.83;;
6809;SDS011;3443;48.812;9.112;2024-01-15T00:23:04;16.50;;;12.30;;
6809;SDS011;3443;48.812;9.112;2024-01-15T00:25:29;17.00;;;12.37;;
6809;SDS011;3443;48.812;9.112;2024-01-15T00:27:55;18.33;;;13.17;;
6809;SDS011;3443;48.812;9.112;2024-01-15T00:30:20;18.83;;;12.77;;
6809;SDS011;3443;48.812;9.112;2024-01-15T00:32:46;19.40;;;13.10;;
6809;SDS011;3443;48.812;9.112;2024-01-15T00:35:12;19.87;;;13.13;;
6809;SDS011;3443;48.812;9.112;2024-01-15T00:37:37;18.70;;;12.50;;
6809;SDS011;3443;48.812;9.112;2024-01-15T00:40:03;16.57;;;12.00;;
6809;SDS011;3443;48.812;9.112;2024-01-15T00:42:30;15.43;;;11.53;;
6809;SDS011;3443;48.812;9.112;2024-01-15T00:44:55;18.43;;;12.07;;
6809;SDS011;3443;48.812;9.112;2024-01-15T00:47:21;18.57;;;12.40;;
6809;SDS011;3443;48.812;9.112;2024-01-15T00:49:46;18.00;;;12.67;;
6809;SDS011;3443;48.812;9.112;2024-01-15T00:52:12;18.33;;;12.60;;
6809;SDS011;3443;48.812;9.112;2024-01-15T00:54:37;17.53;;;11.47;;
6809;SDS011;3443;48.812;9.112;2024-01-15T00:57:05;15.87;;;11.70;;
6809;SDS011;3443;48.812;9.112;2024-01-15T00:59:30;17.83;;;12.50;;
6809;SDS011;3443;48.812;9.112;2024-01-15T01:01:56;17.23;;;11.63;;
6809;SDS011;3443;48.812;9.112;2024-01-15T01:04:21;17.03;;;11.20;;
6809;SDS011;3443;48.812;9.112;2024-01-15T01:06:47;16.03;;;11.03;;
6809;SDS011;3443;48.812;9.112;2024-01-15T01:09:13;17.90;;;11.93;;
6809;SDS011;3443;48.812;9.112;2024-01-15T01:11:38;16.37;;;11.47;;
6809;SDS011;3443;48.812;9.112;2024-01-15T01:14:04;17.00;;;11.73;;
6809;SDS011;3443;48.812;9.112;2024-01-15T01:16:30;15.13;;;10.70;;
6809;SDS011;3443;48.812;9.112;2024-01-15T01:18:56;16.03;;;11.00;;
6809;SDS011;3443;48.812;9.112;2024-01-15T01:21:22;16.27;;;11.33;;
6809;SDS011;3443;48.812;9.112;2024-01-15T01:23:47;15.03;;;11.20;;
6809;SDS011;3443;48.812;9.112;2024-01-15T01:26:16;15.30;;;10.80;;
6809;SDS011;3443;48.812;9.112;2024-01-15T01:28:42;16.60;;;11.03;;
6809;SDS011;3443;48.812;9.112;2024-01-15T01:31:08;14.27;;;10.80;;
6809;SDS011;3443;48.812;9.112;2024-01-15T01:33:33;16.40;;;10.70;;
6809;SDS011;3443;48.812;9.112;2024-01-15T01:35:59;15.30;;;10.80;;
6809;SDS011;3443;48.812;9.112;2024-01-15T01:38:25;15.50;;;10.50;;
6809;SDS011;3443;48.812;9.112;2024-01-15T01:40:50;15.93;;;11.17;;
6809;SDS011;3443;48.812;9.112;2024-01-15T01:43:16;15.83;;;10.40;;
6809;SDS011;3443;48.812;9.112;2024-01-15T01:45:41;13.93;;;10.47;;
6809;SDS011;3443;48.812;9.112;2024-01-15T01:48:07;14.47;;;10.43;;
6809;SDS011;3443;48.812;9.112;2024-01-15T01:50:32;13.80;;;10.07;;
6809;SDS011;3443;48.812;9.112;2024-01-15T01:52:59;14.83;;;10.73;;
6809;SDS011;3443;48.812;9.112;2024-01-15T01:55:26;14.47;;;9.77;;
6809;SDS011;3443;48.812;9.112;2024-01-15T01:57:54;15.07;;;9.63;;
6809;SDS011;3443;48.812;9.112;2024-01-15T02:00:20;13.23;;;10.00;;
6809;SDS011;3443;48.812;9.112;2024-01-15T02:02:46;13.93;;;10.27;;
6809;SDS011;3443;48.812;9.112;2024-01-15T02:05:12;14.93;;;10.00;;
6809;SDS011;3443;48.812;9.112;2024-01-15T02:07:43;14.03;;;9.83;;
6809;SDS011;3443;48.812;9.112;2024-01-15T02:10:09;13.87;;;9.93;;
6809;SDS011;3443;48.812;9.112;2024-01-15T02:12:35;13.27;;;9.37;;
6809;SDS011;3443;48.812;9.112;2024-01-15T02:15:01;15.27;;;9.60;;
6809;SDS011;3443;48.812;9.112;2024-01-15T02:17:26;14.63;;;9.87;;
6809;SDS011;3443;48.812;9.112;2024-01-15T02:19:52;12.63;;;9.20;;
6809;SDS011;3443;48.812;9.112;2024-01-15T02:22:18;13.43;;;9.13;;
6809;SDS011;3443;48.812;9.112;2024-01-15T02:24:43;12.87;;;9.10;;
6809;SDS011;3443;48.812;9.112;2024-01-15T02:27:09;14.77;;;10.03;;
6809;SDS011;3443;48.812;9.112;2024-01-15T02:29:34;14.90;;;9.63;;
6809;SDS011;3443;48.812;9.112;2024-01-15T02:32:04;12.87;;;9.40;;
6809;SDS011;3443;48.812;9.112;2024-01-15T02:34:31;13.73;;;10.00;;
6809;SDS011;3443;48.812;9.112;2024-01-15T02:36:57;14.07;;;10.10;;
6809;SDS011;3443;48.812;9.112;2024-01-15T02:39:23;13.67;;;10.00;;
6809;SDS011;3443;48.812;9.112;2024-01-15T02:41:48;14.70;;;9.73;;
6809;SDS011;3443;48.812;9.112;2024-01-15T02:44:14;12.13;;;9.10;;
6809;SDS011;3443;48.812;9.112;2024-01-15T02:46:39;14.20;;;9.87;;
6809;SDS011;3443;48.812;9.112;2024-01-15T02:49:05;13.83;;;9.17;;
6809;SDS011;3443;48.812;9.112;2024-01-15T02:51:30;11.80;;;9.67;;
6809;SDS011;3443;48.812;9.112;2024-01-15T02:53:56;12.47;;;9.33;;
6809;SDS011;3443;48.812;9.112;2024-01-15T02:56:22;13.47;;;9.83;;
6809;SDS011;3443;48.812;9.112;2024-01-15T02:58:47;13.33;;;10.27;;
6809;SDS011;3443;48.812;9.112;2024-01-15T03:01:13;16.13;;;11.07;;
6809;SDS011;3443;48.812;9.112;2024-01-15T03:03:39;12.40;;;9.43;;
6809;SDS011;3443;48.812;9.112;2024-01-15T03:06:05;12.53;;;9.37;;
6809;SDS011;3443;48.812;9.112;2024-01-15T03:08:32;14.40;;;9.67;;
6809;SDS011;3443;48.812;9.112;2024-01-15T03:10:57;14.20;;;9.80;;
6809;SDS011;3443;48.812;9.112;2024-01-15T03:13:24;12.57;;;9.70;;
6809;SDS011;3443;48.812;9.112;2024-01-15T03:15:49;12.87;;;9.50;;
6809;SDS011;3443;48.812;9.112;2024-01-15T03:18:15;13.93;;;10.00;;
6809;SDS011;3443;48.812;9.112;2024-01-15T03:20:40;13.60;;;9.57;;
6809;SDS011;3443;48.812;9.112;2024-01-15T03:23:06;14.63;;;10.20;;
6809;SDS011;3443;48.812;9.112;2024-01-15T03:25:31;13.87;;;10.10;;
6809;SDS011;3443;48.812;9.112;2024-01-15T03:27:57;14.47;;;9.10;;
6809;SDS011;3443;48.812;9.112;2024-01-15T03:30:22;14.93;;;10.20;;
6809;SDS011;3443;48.812;9.112;2024-01-15T03:32:48;11.83;;;9.73;;
6809;SDS011;3443;48.812;9.112;2024-01-15T03:35:15;12.93;;;9.20;;
6809;SDS011;3443;48.812;9.112;2024-01-15T03:37:40;13.13;;;9.33;;
6809;SDS011;3443;48.812;9.112;2024-01-15T03:40:06;11.70;;;9.03;;
6809;SDS011;3443;48.812;9.112;2024-01-15T03:42:32;11.67;;;9.23;;
6809;SDS011;3443;48.812;9.112;2024-01-15T03:44:58;10.73;;;8.07;;
6809;SDS011;3443;48.812;9.112;2024-01-15T03:47:23;10.90;;;8.30;;
6809;SDS011;3443;48.812;9.112;2024-01-15T03:49:49;12.27;;;8.40;;
6809;SDS011;3443;48.812;9.112;2024-01-15T03:52:14;10.40;;;7.77;;
6809;SDS011;3443;48.812;9.112;2024-01-15T03:54:41;12.57;;;8.13;;
6809;SDS011;3443;48.812;9.112;2024-01-15T03:57:06;11.17;;;7.93;;
6809;SDS011;3443;48.812;9.112;2024-01-15T03:59:32;10.07;;;7.73;;
6809;SDS011;3443;48.812;9.112;2024-01-15T04:01:57;10.50;;;7.97;;
6809;SDS011;3443;48.812;9.112;2024-01-15T04:04:23;12.37;;;8.10;;
6809;SDS011;3443;48.812;9.112;2024-01-15T04:06:48;10.30;;;7.60;;
6809;SDS011;3443;48.812;9.112;2024-01-15T04:09:14;9.37;;;7.73;;
6809;SDS011;3443;48.812;9.112;2024-01-15T04:11:40;10.00;;;7.20;;
6809;SDS011;3443;48.812;9.112;2024-01-15T04:14:05;10.27;;;7.37;;
6809;SDS011;3443;48.812;9.112;2024-01-15T04:16:31;11.33;;;8.10;;
6809;SDS011;3443;48.812;9.112;2024-01-15T04:18:56;9.83;;;7.20;;
6809;SDS011;3443;48.812;9.112;2024-01-15T04:21:22;8.97;;;6.87;;
6809;SDS011;3443;48.812;9.112;2024-01-15T04:23:47;9.63;;;7.33;;
6809;SDS011;3443;48.812;9.112;2024-01-15T04:26:13;9.27;;;6.90;;
6809;SDS011;3443;48.812;9.112;2024-01-15T04:28:38;9.07;;;7.20;;
6809;SDS011;3443;48.812;9.112;2024-01-15T04:31:04;8.70;;;6.83;;
6809;SDS011;3443;48.812;9.112;2024-01-15T04:33:29;10.40;;;7.90;;
6809;SDS011;3443;48.812;9.112;2024-01-15T04:35:55;8.17;;;6.77;;
6809;SDS011;3443;48.812;9.112;2024-01-15T04:38:20;9.33;;;7.27;;
6809;SDS011;3443;48.812;9.112;2024-01-15T04:40:46;10.63;;;7.63;;
6809;SDS011;3443;48.812;9.112;2024-01-15T04:43:11;10.47;;;7.47;;
6809;SDS011;3443;48.812;9.112;2024-01-15T04:45:37;11.30;;;7.60;;
6809;SDS011;3443;48.812;9.112;2024-01-15T04:48:03;10.27;;;8.00;;
6809;SDS011;3443;48.812;9.112;2024-01-15T04:50:28;10.20;;;7.53;;
6809;SDS011;3443;48.812;9.112;2024-01-15T04:52:54;10.27;;;7.77;;
6809;SDS011;3443;48.812;9.112;2024-01-15T04:55:19;10.53;;;7.40;;
6809;SDS011;3443;48.812;9.112;2024-01-15T04:57:45;10.23;;;7.23;;
6809;SDS011;3443;48.812;9.112;2024-01-15T05:00:11;10.57;;;7.43;;
6809;SDS011;3443;48.812;9.112;2024-01-15T05:02:38;8.47;;;6.97;;
6809;SDS011;3443;48.812;9.112;2024-01-15T05:05:03;10.23;;;7.70;;
6809;SDS011;3443;48.812;9.112;2024-01-15T05:07:30;9.83;;;7.53;;
6809;SDS011;3443;48.812;9.112;2024-01-15T05:09:56;9.00;;;7.27;;
6809;SDS011;3443;48.812;9.112;2024-01-15T05:12:21;11.23;;;7.77;;
6809;SDS011;3443;48.812;9.112;2024-01-15T05:14:47;10.40;;;7.13;;
6809;SDS011;3443;48.812;9.112;2024-01-15T05:17:13;8.47;;;6.97;;
6809;SDS011;3443;48.812;9.112;2024-01-15T05:19:38;8.87;;;7.40;;
6809;SDS011;3443;48.812;9.112;2024-01-15T05:22:04;7.43;;;6.60;;
6809;SDS011;3443;48.812;9.112;2024-01-15T05:24:30;7.60;;;6.50;;
6809;SDS011;3443;48.812;9.112;2024-01-15T05:26:55;8.63;;;6.70;;
6809;SDS011;3443;48.812;9.112;2024-01-15T05:29:21;7.77;;;6.43;;
6809;SDS011;3443;48.812;9.112;2024-01-15T05:31:46;9.53;;;6.87;;
6809;SDS011;3443;48.812;9.112;2024-01-15T05:34:12;8.13;;;6.63;;
6809;SDS011;3443;48.812;9.112;2024-01-15T05:36:37;9.83;;;7.20;;
6809;SDS011;3443;48.812;9.112;2024-01-15T05:39:03;7.83;;;6.50;;
6809;SDS011;3443;48.812;9.112;2024-01-15T05:41:28;8.50;;;6.60;;
6809;SDS011;3443;48.812;9.112;2024-01-15T05:43:54;6.80;;;5.90;;
6809;SDS011;3443;48.812;9.112;2024-01-15T05:46:20;5.97;;;5.37;;
6809;SDS011;3443;48.812;9.112;2024-01-15T05:48:45;8.03;;;6.00;;
6809;SDS011;3443;48.812;9.112;2024-01-15T05:51:11;7.17;;;5.70;;
6809;SDS011;3443;48.812;9.112;2024-01-15T05:53:37;6.77;;;5.80;;
6809;SDS011;3443;48.812;9.112;2024-01-15T05:56:05;8.57;;;5.77;;
6809;SDS011;3443;48.812;9.112;2024-01-15T05:58:31;7.03;;;5.97;;
6809;SDS011;3443;48.812;9.112;2024-01-15T06:00:56;8.67;;;6.47;;
6809;SDS011;3443;48.812;9.112;2024-01-15T06:03:22;7.57;;;6.53;;
6809;SDS011;3443;48.812;9.112;2024-01-15T06:05:47;8.97;;;6.50;;
6809;SDS011;3443;48.812;9.112;2024-01-15T06:08:13;7.90;;;6.50;;
6809;SDS011;3443;48.812;9.112;2024-01-15T06:10:39;8.23;;;6.90;;
6809;SDS011;3443;48.812;9.112;2024-01-15T06:13:05;8.37;;;6.87;;
6809;SDS011;3443;48.812;9.112;2024-01-15T06:15:30;8.77;;;6.80;;
6809;SDS011;3443;48.812;9.112;2024-01-15T06:17:56;9.90;;;7.50;;
6809;SDS011;3443;48.812;9.112;2024-01-15T06:20:21;10.17;;;7.37;;
6809;SDS011;3443;48.812;9.112;2024-01-15T06:22:47;9.80;;;7.30;;
6809;SDS011;3443;48.812;9.112;2024-01-15T06:25:12;11.17;;;7.17;;
6809;SDS011;3443;48.812;9.112;2024-01-15T06:27:38;11.83;;;7.17;;
6809;SDS011;3443;48.812;9.112;2024-01-15T06:30:04;9.20;;;7.30;;
6809;SDS011;3443;48.812;9.112;2024-01-15T06:32:30;10.63;;;7.80;;
6809;SDS011;3443;48.812;9.112;2024-01-15T06:34:56;9.07;;;7.03;;
6809;SDS011;3443;48.812;9.112;2024-01-15T06:37:21;11.73;;;7.43;;
6809;SDS011;3443;48.812;9.112;2024-01-15T06:39:47;10.63;;;7.30;;
6809;SDS011;3443;48.812;9.112;2024-01-15T06:42:12;9.00;;;6.63;;
6809;SDS011;3443;48.812;9.112;2024-01-15T06:44:38;8.63;;;6.93;;
6809;SDS011;3443;48.812;9.112;2024-01-15T06:47:04;10.23;;;6.77;;
6809;SDS011;3443;48.812;9.112;2024-01-15T06:49:30;8.17;;;7.30;;
6809;SDS011;3443;48.812;9.112;2024-01-15T06:51:55;8.47;;;7.03;;
6809;SDS011;3443;48.812;9.112;2024-01-15T06:54:21;9.30;;;6.93;;
6809;SDS011;3443;48.812;9.112;2024-01-15T06:56:47;8.23;;;7.13;;
6809;SDS011;3443;48.812;9.112;2024-01-15T06:59:12;7.30;;;6.47;;
6809;SDS011;3443;48.812;9.112;2024-01-15T07:01:38;8.77;;;7.13;;
6809;SDS011;3443;48.812;9.112;2024-01-15T07:04:03;7.97;;;6.80;;
6809;SDS011;3443;48.812;9.112;2024-01-15T07:06:29;8.53;;;6.40;;
6809;SDS011;3443;48.812;9.112;2024-01-15T07:08:55;8.43;;;6.60;;
6809;SDS011;3443;48.812;9.112;2024-01-15T07:11:21;10.07;;;6.83;;
6809;SDS011;3443;48.812;9.112;2024-01-15T07:13:47;7.77;;;6.13;;
6809;SDS011;3443;48.812;9.112;2024-01-15T07:16:12;7.77;;;6.70;;
6809;SDS011;3443;48.812;9.112;2024-01-15T07:18:38;8.70;;;6.37;;
6809;SDS011;3443;48.812;9.112;2024-01-15T07:21:04;10.87;;;7.23;;
6809;SDS011;3443;48.812;9.112;2024-01-15T07:23:30;8.13;;;6.97;;
6809;SDS011;3443;48.812;9.112;2024-01-15T07:25:56;9.23;;;6.80;;
6809;SDS011;3443;48.812;9.112;2024-01-15T07:28:22;9.33;;;7.57;;
6809;SDS011;3443;48.812;9.112;2024-01-15T07:30:47;9.33;;;7.20;;
6809;SDS011;3443;48.812;9.112;2024-01-15T07:33:13;8.67;;;7.03;;
6809;SDS011;3443;48.812;9.112;2024-01-15T07:35:39;9.53;;;7.63;;
6809;SDS011;3443;48.812;9.112;2024-01-15T07:38:04;10.23;;;7.50;;
6809;SDS011;3443;48.812;9.112;2024-01-15T07:40:30;9.73;;;7.73;;
6809;SDS011;3443;48.812;9.112;2024-01-15T07:42:55;9.60;;;7.97;;
6809;SDS011;3443;48.812;9.112;2024-01-15T07:45:21;11.43;;;7.77;;
6809;SDS011;3443;48.812;9.112;2024-01-15T07:47:47;10.27;;;8.47;;
6809;SDS011;3443;48.812;9.112;2024-01-15T07:50:12;9.93;;;8.10;;
6809;SDS011;3443;48.812;9.112;2024-01-15T07:52:39;10.33;;;8.13;;
6809;SDS011;3443;48.812;9.112;2024-01-15T07:55:06;10.97;;;8.20;;
6809;SDS011;3443;48.812;9.112;2024-01-15T07:57:32;11.13;;;8.70;;
6809;SDS011;3443;48.812;9.112;2024-01-15T07:59:58;10.90;;;8.90;;
6809;SDS011;3443;48.812;9.112;2024-01-15T08:02:23;11.30;;;8.77;;
6809;SDS011;3443;48.812;9.112;2024-01-15T08:04:49;11.00;;;8.47;;
6809;SDS011;3443;48.812;9.112;2024-01-15T08:07:14;11.17;;;8.20;;
6809;SDS011;3443;48.812;9.112;2024-01-15T08:09:40;9.37;;;7.60;;
6809;SDS011;3443;48.812;9.112;2024-01-15T08:12:06;10.50;;;8.20;;
6809;SDS011;3443;48.812;9.112;2024-01-15T08:14:32;10.20;;;7.83;;
6809;SDS011;3443;48.812;9.112;2024-01-15T08:16:58;11.43;;;8.23;;
6809;SDS011;3443;48.812;9.112;2024-01-15T08:19:23;10.30;;;7.73;;
6809;SDS011;3443;48.812;9.112;2024-01-15T08:21:49;10.30;;;7.73;;
6809;SDS011;3443;48.812;9.112;2024-01-15T08:24:15;8.43;;;6.77;;
6809;SDS011;3443;48.812;9.112;2024-01-15T08:26:41;8.27;;;6.23;;
6809;SDS011;3443;48.812;9.112;2024-01-15T08:29:07;6.67;;;5.97;;
6809;SDS011;3443;48.812;9.112;2024-01-15T08:31:33;7.57;;;6.33;;
6809;SDS011;3443;48.812;9.112;2024-01-15T08:33:59;7.53;;;6.53;;
6809;SDS011;3443;48.812;9.112;2024-01-15T08:36:27;8.03;;;6.53;;
6809;SDS011;3443;48.812;9.112;2024-01-15T08:38:56;7.10;;;6.40;;
6809;SDS011;3443;48.812;9.112;2024-01-15T08:41:22;6.27;;;5.63;;
6809;SDS011;3443;48.812;9.112;2024-01-15T08:43:49;7.93;;;6.20;;
6809;SDS011;3443;48.812;9.112;2024-01-15T08:46:15;7.87;;;6.20;;
6809;SDS011;3443;48.812;9.112;2024-01-15T08:48:41;7.87;;;6.27;;
6809;SDS011;3443;48.812;9.112;2024-01-15T08:51:07;6.53;;;5.80;;
6809;SDS011;3443;48.812;9.112;2024-01-15T08:53:33;9.73;;;5.47;;
6809;SDS011;3443;48.812;9.112;2024-01-15T08:55:58;7.70;;;5.97;;
6809;SDS011;3443;48.812;9.112;2024-01-15T08:58:24;6.37;;;5.20;;
6809;SDS011;3443;48.812;9.112;2024-01-15T09:00:50;6.90;;;5.33;;
6809;SDS011;3443;48.812;9.112;2024-01-15T09:03:16;6.83;;;5.70;;
6809;SDS011;3443;48.812;9.112;2024-01-15T09:05:42;7.17;;;4.77;;
6809;SDS011;3443;48.812;9.112;2024-01-15T09:08:08;6.33;;;5.03;;
6809;SDS011;3443;48.812;9.112;2024-01-15T09:10:33;5.70;;;4.60;;
6809;SDS011;3443;48.812;9.112;2024-01-15T09:12:59;6.33;;;4.63;;
6809;SDS011;3443;48.812;9.112;2024-01-15T09:15:25;6.87;;;5.30;;
6809;SDS011;3443;48.812;9.112;2024-01-15T09:17:51;5.43;;;4.60;;
6809;SDS011;3443;48.812;9.112;2024-01-15T09:20:16;4.33;;;3.93;;
6809;SDS011;3443;48.812;9.112;2024-01-15T09:22:42;4.90;;;4.20;;
6809;SDS011;3443;48.812;9.112;2024-01-15T09:25:08;5.40;;;4.50;;
6809;SDS011;3443;48.812;9.112;2024-01-15T09:27:36;5.47;;;4.27;;
6809;SDS011;3443;48.812;9.112;2024-01-15T09:30:03;5.03;;;4.03;;
6809;SDS011;3443;48.812;9.112;2024-01-15T09:32:29;4.80;;;4.13;;
6809;SDS011;3443;48.812;9.112;2024-01-15T09:34:55;6.00;;;4.17;;
6809;SDS011;3443;48.812;9.112;2024-01-15T09:37:21;7.43;;;4.17;;
6809;SDS011;3443;48.812;9.112;2024-01-15T09:39:46;5.83;;;3.60;;
6809;SDS011;3443;48.812;9.112;2024-01-15T09:42:13;5.90;;;4.00;;
6809;SDS011;3443;48.812;9.112;2024-01-15T09:44:40;5.33;;;4.13;;
6809;SDS011;3443;48.812;9.112;2024-01-15T09:47:06;5.00;;;4.23;;
6809;SDS011;3443;48.812;9.112;2024-01-15T09:49:32;4.23;;;3.73;;
6809;SDS011;3443;48.812;9.112;2024-01-15T09:51:58;3.67;;;3.37;;
6809;SDS011;3443;48.812;9.112;2024-01-15T09:54:24;4.60;;;3.87;;
6809;SDS011;3443;48.812;9.112;2024-01-15T09:56:50;4.47;;;3.47;;
6809;SDS011;3443;48.812;9.112;2024-01-15T09:59:16;4.53;;;3.93;;
6809;SDS011;3443;48.812;9.112;2024-01-15T10:01:43;4.17;;;3.73;;
6809;SDS011;3443;48.812;9.112;2024-01-15T10:04:09;4.47;;;4.07;;
6809;SDS011;3443;48.812;9.112;2024-01-15T10:06:37;5.47;;;4.20;;
6809;SDS011;3443;48.812;9.112;2024-01-15T10:09:04;4.93;;;3.93;;
6809;SDS011;3443;48.812;9.112;2024-01-15T10:11:32;5.90;;;3.90;;
6809;SDS011;3443;48.812;9.112;2024-01-15T10:13:58;4.93;;;3.93;;
6809;SDS011;3443;48.812;9.112;2024-01-15T10:16:24;4.40;;;4.00;;
6809;SDS011;3443;48.812;9.112;2024-01-15T10:18:50;3.83;;;3.43;;
6809;SDS011;3443;48.812;9.112;2024-01-15T10:21:16;3.77;;;3.47;;
6809;SDS011;3443;48.812;9.112;2024-01-15T10:23:42;3.83;;;3.43;;
6809;SDS011;3443;48.812;9.112;2024-01-15T10:26:07;3.97;;;3.53;;
6809;SDS011;3443;48.812;9.112;2024-01-15T10:28:33;5.37;;;3.80;;
6809;SDS011;3443;48.812;9.112;2024-01-15T10:30:59;6.80;;;3.90;;
6809;SDS011;3443;48.812;9.112;2024-01-15T10:33:25;5.13;;;4.70;;
6809;SDS011;3443;48.812;9.112;2024-01-15T10:35:57;3.80;;;3.50;;
6809;SDS011;3443;48.812;9.112;2024-01-15T10:38:25;3.73;;;3.40;;
6809;SDS011;3443;48.812;9.112;2024-01-15T10:40:51;3.60;;;3.33;;
6809;SDS011;3443;48.812;9.112;2024-01-15T10:43:20;4.60;;;3.40;;
6809;SDS011;3443;48.812;9.112;2024-01-15T10:45:47;4.80;;;3.90;;
6809;SDS011;3443;48.812;9.112;2024-01-15T10:48:13;4.00;;;3.60;;
6809;SDS011;3443;48.812;9.112;2024-01-15T10:50:40;3.53;;;3.20;;
6809;SDS011;3443;48.812;9.112;2024-01-15T10:53:06;4.77;;;3.53;;
6809;SDS011;3443;48.812;9.112;2024-01-15T10:55:35;3.87;;;3.50;;
6809;SDS011;3443;48.812;9.112;2024-01-15T10:58:02;3.73;;;3.43;;
6809;SDS011;3443;48.812;9.112;2024-01-15T11:00:29;3.50;;;3.30;;
6809;SDS011;3443;48.812;9.112;2024-01-15T11:02:55;3.30;;;3.10;;
6809;SDS011;3443;48.812;9.112;2024-01-15T11:05:22;3.90;;;3.50;;
6809;SDS011;3443;48.812;9.112;2024-01-15T11:07:48;3.67;;;3.20;;
6809;SDS011;3443;48.812;9.112;2024-01-15T11:13:14;6.77;;;4.13;;
6809;SDS011;3443;48.812;9.112;2024-01-15T11:18:30;4.40;;;4.00;;
6809;SDS011;3443;48.812;9.112;2024-01-15T11:23:44;4.53;;;4.10;;
6809;SDS011;3443;48.812;9.112;2024-01-15T11:29:00;5.77;;;4.73;;
6809;SDS011;3443;48.812;9.112;2024-01-15T11:32:10;5.53;;;4.77;;
6809;SDS011;3443;48.812;9.112;2024-01-15T11:34:19;4.97;;;4.40;;
6809;SDS011;3443;48.812;9.112;2024-01-15T11:41:56;5.30;;;4.80;;
6809;SDS011;3443;48.812;9.112;2024-01-15T11:44:22;7.00;;;5.30;;
6809;SDS011;3443;48.812;9.112;2024-01-15T11:47:01;6.07;;;4.90;;
6809;SDS011;3443;48.812;9.112;2024-01-15T11:52:16;6.50;;;4.80;;
6809;SDS011;3443;48.812;9.112;2024-01-15T11:55:26;5.87;;;4.70;;
6809;SDS011;3443;48.812;9.112;2024-01-15T11:57:45;5.23;;;4.67;;
6809;SDS011;3443;48.812;9.112;2024-01-15T12:00:12;7.13;;;5.27;;
6809;SDS011;3443;48.812;9.112;2024-01-15T12:02:39;6.10;;;5.10;;
6809;SDS011;3443;48.812;9.112;2024-01-15T12:05:06;6.73;;;5.03;;
6809;SDS011;3443;48.812;9.112;2024-01-15T12:07:33;5.80;;;5.17;;
6809;SDS011;3443;48.812;9.112;2024-01-15T12:09:59;5.97;;;5.00;;
6809;SDS011;3443;48.812;9.112;2024-01-15T12:12:33;6.20;;;5.40;;
6809;SDS011;3443;48.812;9.112;2024-01-15T12:15:20;5.53;;;4.93;;
6809;SDS011;3443;48.812;9.112;2024-01-15T12:17:46;5.83;;;4.93;;
6809;SDS011;3443;48.812;9.112;2024-01-15T12:20:12;6.07;;;5.07;;
6809;SDS011;3443;48.812;9.112;2024-01-15T12:22:38;6.93;;;4.83;;
6809;SDS011;3443;48.812;9.112;2024-01-15T12:25:04;6.87;;;5.17;;
6809;SDS011;3443;48.812;9.112;2024-01-15T12:27:30;6.33;;;5.00;;
6809;SDS011;3443;48.812;9.112;2024-01-15T12:29:57;5.57;;;4.83;;
6809;SDS011;3443;48.812;9.112;2024-01-15T12:32:23;5.37;;;4.87;;
6809;SDS011;3443;48.812;9.112;2024-01-15T12:34:50;6.87;;;4.80;;
6809;SDS011;3443;48.812;9.112;2024-01-15T12:37:18;5.83;;;5.07;;
6809;SDS011;3443;48.812;9.112;2024-01-15T12:39:44;5.40;;;4.90;;
6809;SDS011;3443;48.812;9.112;2024-01-15T12:42:10;4.83;;;4.43;;
6809;SDS011;3443;48.812;9.112;2024-01-15T12:44:35;5.37;;;4.87;;
6809;SDS011;3443;48.812;9.112;2024-01-15T12:47:04;6.50;;;4.57;;
6809;SDS011;3443;48.812;9.112;2024-01-15T12:49:30;5.97;;;4.97;;
6809;SDS011;3443;48.812;9.112;2024-01-15T12:51:57;6.83;;;5.07;;
6809;SDS011;3443;48.812;9.112;2024-01-15T12:54:23;5.47;;;4.90;;
6809;SDS011;3443;48.812;9.112;2024-01-15T12:56:49;4.73;;;4.20;;
6809;SDS011;3443;48.812;9.112;2024-01-15T12:59:16;5.87;;;4.63;;
6809;SDS011;3443;48.812;9.112;2024-01-15T13:01:42;9.00;;;5.63;;
6809;SDS011;3443;48.812;9.112;2024-01-15T13:04:08;4.60;;;4.20;;
6809;SDS011;3443;48.812;9.112;2024-01-15T13:06:37;4.70;;;4.23;;
6809;SDS011;3443;48.812;9.112;2024-01-15T13:09:03;7.20;;;4.93;;
6809;SDS011;3443;48.812;9.112;2024-01-15T13:11:32;4.70;;;4.30;;
6809;SDS011;3443;48.812;9.112;2024-01-15T13:13:58;6.00;;;5.13;;
6809;SDS011;3443;48.812;9.112;2024-01-15T13:16:24;5.43;;;4.40;;
6809;SDS011;3443;48.812;9.112;2024-01-15T13:18:53;5.93;;;4.47;;
6809;SDS011;3443;48.812;9.112;2024-01-15T13:21:19;5.00;;;4.60;;
6809;SDS011;3443;48.812;9.112;2024-01-15T13:23:44;4.03;;;3.70;;
6809;SDS011;3443;48.812;9.112;2024-01-15T13:26:10;4.43;;;3.67;;
6809;SDS011;3443;48.812;9.112;2024-01-15T13:28:35;4.20;;;3.87;;
6809;SDS011;3443;48.812;9.112;2024-01-15T13:31:01;3.87;;;3.57;;
6809;SDS011;3443;48.812;9.112;2024-01-15T13:33:27;3.83;;;3.43;;
6809;SDS011;3443;48.812;9.112;2024-01-15T13:35:52;3.80;;;3.50;;
6809;SDS011;3443;48.812;9.112;2024-01-15T13:38:18;3.53;;;3.20;;
6809;SDS011;3443;48.812;9.112;2024-01-15T13:40:44;3.60;;;3.30;;
6809;SDS011;3443;48.812;9.112;2024-01-15T13:43:10;3.10;;;2.90;;
6809;SDS011;3443;48.812;9.112;2024-01-15T13:45:36;3.93;;;3.53;;
6809;SDS011;3443;48.812;9.112;2024-01-15T13:48:02;3.40;;;3.10;;
6809;SDS011;3443;48.812;9.112;2024-01-15T13:50:30;3.90;;;3.50;;
6809;SDS011;3443;48.812;9.112;2024-01-15T13:52:56;3.53;;;3.33;;
6809;SDS011;3443;48.812;9.112;2024-01-15T13:55:22;5.27;;;3.23;;
6809;SDS011;3443;48.812;9.112;2024-01-15T13:57:47;5.50;;;3.27;;
6809;SDS011;3443;48.812;9.112;2024-01-15T14:00:13;3.20;;;3.00;;
6809;SDS011;3443;48.812;9.112;2024-01-15T14:02:43;3.23;;;3.03;;
6809;SDS011;3443;48.812;9.112;2024-01-15T14:05:09;3.33;;;3.10;;
6809;SDS011;3443;48.812;9.112;2024-01-15T14:07:37;4.10;;;2.90;;
6809;SDS011;3443;48.812;9.112;2024-01-15T14:10:04;4.20;;;3.40;;
6809;SDS011;3443;48.812;9.112;2024-01-15T14:12:30;3.23;;;3.03;;
6809;SDS011;3443;48.812;9.112;2024-01-15T14:14:56;3.13;;;3.00;;
6809;SDS011;3443;48.812;9.112;2024-01-15T14:17:22;3.10;;;3.00;;
6809;SDS011;3443;48.812;9.112;2024-01-15T14:19:48;3.37;;;3.17;;
6809;SDS011;3443;48.812;9.112;2024-01-15T14:22:13;3.67;;;3.47;;
6809;SDS011;3443;48.812;9.112;2024-01-15T14:24:39;3.47;;;3.20;;
6809;SDS011;3443;48.812;9.112;2024-01-15T14:27:04;3.37;;;3.17;;
6809;SDS011;3443;48.812;9.112;2024-01-15T14:29:32;4.20;;;3.77;;
6809;SDS011;3443;48.812;9.112;2024-01-15T14:31:57;3.40;;;3.20;;
6809;SDS011;3443;48.812;9.112;2024-01-15T14:34:24;4.87;;;4.47;;
6809;SDS011;3443;48.812;9.112;2024-01-15T14:36:50;6.43;;;5.67;;
6809;SDS011;3443;48.812;9.112;2024-01-15T14:39:18;5.60;;;5.20;;
6809;SDS011;3443;48.812;9.112;2024-01-15T14:41:44;5.57;;;5.07;;
6809;SDS011;3443;48.812;9.112;2024-01-15T14:44:11;6.00;;;5.60;;
6809;SDS011;3443;48.812;9.112;2024-01-15T14:46:37;6.20;;;5.60;;
6809;SDS011;3443;48.812;9.112;2024-01-15T14:49:03;6.80;;;6.10;;
6809;SDS011;3443;48.812;9.112;2024-01-15T14:51:28;7.10;;;6.50;;
6809;SDS011;3443;48.812;9.112;2024-01-15T14:53:54;6.60;;;6.00;;
6809;SDS011;3443;48.812;9.112;2024-01-15T14:56:20;6.90;;;6.30;;
6809;SDS011;3443;48.812;9.112;2024-01-15T14:58:45;7.57;;;6.87;;
6809;SDS011;3443;48.812;9.112;2024-01-15T15:01:11;7.37;;;6.77;;
6809;SDS011;3443;48.812;9.112;2024-01-15T15:03:38;7.53;;;6.50;;
6809;SDS011;3443;48.812;9.112;2024-01-15T15:06:03;6.87;;;6.27;;
6809;SDS011;3443;48.812;9.112;2024-01-15T15:08:29;15.03;;;11.80;;
6809;SDS011;3443;48.812;9.112;2024-01-15T15:10:55;7.17;;;6.50;;
6809;SDS011;3443;48.812;9.112;2024-01-15T15:13:21;7.23;;;6.53;;
6809;SDS011;3443;48.812;9.112;2024-01-15T15:15:48;7.23;;;6.53;;
6809;SDS011;3443;48.812;9.112;2024-01-15T15:18:13;8.27;;;6.73;;
6809;SDS011;3443;48.812;9.112;2024-01-15T15:20:39;7.37;;;6.73;;